Archie, Louisiana
Current Conditions -  °F | °C
As of 8:53 PM on Friday 19 Dec 2014 (Local Time) from KESF Reporting Station
Overcast Overcast  
Wind Chill: 45°   Ceiling: 700
Heat Index: 48°   Visibility: 10mi
Dew Point: 45°   Wind: 7mph
Humidity: 89%   Direction: NA
Pressure: 30.14"   Gusts: NA
Location:  31.5028°N, 91.9028°W
Report Text: KESF 200253Z AUTO VRB06KT 10SM OVC007 09/07 A3014 RMK AO2 CIG 005V012 SLP207 60000 T00890072 53015
Loading
Personal Weather Stations






























Interactive Weather Map New forecast layout! Learn more

10-Day Weather Forecast

Advertisements
Track Severe Weather on mobile